sensor_id;sensor_type;location;lat;lon;timestamp;P1;durP1;ratioP1;P2;durP2;ratioP2
23072;SDS011;67971;51.046;3.732;2023-03-01T00:02:20;10.07;;;6.77;;
23072;SDS011;67971;51.046;3.732;2023-03-01T00:04:46;9.73;;;5.93;;
23072;SDS011;67971;51.046;3.732;2023-03-01T00:07:11;11.53;;;6.77;;
23072;SDS011;67971;51.046;3.732;2023-03-01T00:09:37;9.77;;;6.87;;
23072;SDS011;67971;51.046;3.732;2023-03-01T00:12:03;9.33;;;6.60;;
23072;SDS011;67971;51.046;3.732;2023-03-01T00:14:30;12.07;;;7.07;;
23072;SDS011;67971;51.046;3.732;2023-03-01T00:16:55;12.93;;;7.17;;
23072;SDS011;67971;51.046;3.732;2023-03-01T00:19:21;8.10;;;6.73;;
23072;SDS011;67971;51.046;3.732;2023-03-01T00:21:47;9.23;;;6.97;;
23072;SDS011;67971;51.046;3.732;2023-03-01T00:24:13;11.10;;;7.47;;
23072;SDS011;67971;51.046;3.732;2023-03-01T00:26:38;10.27;;;6.50;;
23072;SDS011;67971;51.046;3.732;2023-03-01T00:29:04;12.70;;;6.83;;
23072;SDS011;67971;51.046;3.732;2023-03-01T00:31:31;10.70;;;7.30;;
23072;SDS011;67971;51.046;3.732;2023-03-01T00:33:58;8.80;;;7.20;;
23072;SDS011;67971;51.046;3.732;2023-03-01T00:36:27;9.60;;;7.37;;
23072;SDS011;67971;51.046;3.732;2023-03-01T00:38:55;10.53;;;6.70;;
23072;SDS011;67971;51.046;3.732;2023-03-01T00:41:21;8.97;;;7.40;;
23072;SDS011;67971;51.046;3.732;2023-03-01T00:43:48;10.97;;;7.60;;
23072;SDS011;67971;51.046;3.732;2023-03-01T00:46:16;9.93;;;7.13;;
23072;SDS011;67971;51.046;3.732;2023-03-01T00:48:43;9.93;;;7.57;;
23072;SDS011;67971;51.046;3.732;2023-03-01T00:53:37;13.73;;;8.63;;
23072;SDS011;67971;51.046;3.732;2023-03-01T00:56:03;12.13;;;7.70;;
23072;SDS011;67971;51.046;3.732;2023-03-01T00:58:30;12.53;;;8.23;;
23072;SDS011;67971;51.046;3.732;2023-03-01T01:00:56;12.03;;;8.17;;
23072;SDS011;67971;51.046;3.732;2023-03-01T01:03:22;14.13;;;8.73;;
23072;SDS011;67971;51.046;3.732;2023-03-01T01:05:50;11.53;;;7.83;;
23072;SDS011;67971;51.046;3.732;2023-03-01T01:08:16;13.20;;;8.17;;
23072;SDS011;67971;51.046;3.732;2023-03-01T01:10:43;10.90;;;8.43;;
23072;SDS011;67971;51.046;3.732;2023-03-01T01:13:09;10.23;;;8.57;;
23072;SDS011;67971;51.046;3.732;2023-03-01T01:15:35;10.87;;;8.10;;
23072;SDS011;67971;51.046;3.732;2023-03-01T01:18:01;12.60;;;9.17;;
23072;SDS011;67971;51.046;3.732;2023-03-01T01:20:27;12.33;;;9.40;;
23072;SDS011;67971;51.046;3.732;2023-03-01T01:22:53;15.53;;;9.00;;
23072;SDS011;67971;51.046;3.732;2023-03-01T01:25:19;13.13;;;9.40;;
23072;SDS011;67971;51.046;3.732;2023-03-01T01:27:44;14.53;;;9.57;;
23072;SDS011;67971;51.046;3.732;2023-03-01T01:30:10;16.53;;;10.03;;
23072;SDS011;67971;51.046;3.732;2023-03-01T01:32:36;14.37;;;9.77;;
23072;SDS011;67971;51.046;3.732;2023-03-01T01:35:02;19.17;;;10.63;;
23072;SDS011;67971;51.046;3.732;2023-03-01T01:37:28;11.97;;;9.97;;
23072;SDS011;67971;51.046;3.732;2023-03-01T01:39:58;13.33;;;9.40;;
23072;SDS011;67971;51.046;3.732;2023-03-01T01:42:24;14.57;;;9.97;;
23072;SDS011;67971;51.046;3.732;2023-03-01T01:47:54;13.17;;;9.53;;
23072;SDS011;67971;51.046;3.732;2023-03-01T01:50:23;13.33;;;9.73;;
23072;SDS011;67971;51.046;3.732;2023-03-01T01:52:50;13.20;;;10.53;;
23072;SDS011;67971;51.046;3.732;2023-03-01T01:55:18;15.93;;;10.63;;
23072;SDS011;67971;51.046;3.732;2023-03-01T01:57:47;16.67;;;11.10;;
23072;SDS011;67971;51.046;3.732;2023-03-01T02:00:20;14.20;;;11.13;;
23072;SDS011;67971;51.046;3.732;2023-03-01T02:02:48;15.73;;;11.20;;
23072;SDS011;67971;51.046;3.732;2023-03-01T02:05:32;18.03;;;11.43;;
23072;SDS011;67971;51.046;3.732;2023-03-01T02:08:05;18.27;;;11.20;;
23072;SDS011;67971;51.046;3.732;2023-03-01T02:10:32;14.83;;;11.30;;
23072;SDS011;67971;51.046;3.732;2023-03-01T02:12:59;17.67;;;11.57;;
23072;SDS011;67971;51.046;3.732;2023-03-01T02:15:26;16.40;;;11.30;;
23072;SDS011;67971;51.046;3.732;2023-03-01T02:17:56;16.80;;;11.83;;
23072;SDS011;67971;51.046;3.732;2023-03-01T02:22:57;18.43;;;12.20;;
23072;SDS011;67971;51.046;3.732;2023-03-01T02:30:41;22.33;;;14.40;;
23072;SDS011;67971;51.046;3.732;2023-03-01T02:33:29;19.73;;;13.20;;
23072;SDS011;67971;51.046;3.732;2023-03-01T02:35:58;17.13;;;12.87;;
23072;SDS011;67971;51.046;3.732;2023-03-01T02:38:25;19.83;;;13.93;;
23072;SDS011;67971;51.046;3.732;2023-03-01T02:40:52;20.03;;;14.87;;
23072;SDS011;67971;51.046;3.732;2023-03-01T02:43:22;24.13;;;14.87;;
23072;SDS011;67971;51.046;3.732;2023-03-01T02:45:52;21.70;;;13.40;;
23072;SDS011;67971;51.046;3.732;2023-03-01T02:48:22;21.00;;;14.47;;
23072;SDS011;67971;51.046;3.732;2023-03-01T02:54:15;24.47;;;14.77;;
23072;SDS011;67971;51.046;3.732;2023-03-01T02:56:54;19.47;;;14.37;;
23072;SDS011;67971;51.046;3.732;2023-03-01T02:59:22;23.67;;;14.43;;
23072;SDS011;67971;51.046;3.732;2023-03-01T03:01:51;22.17;;;16.00;;
23072;SDS011;67971;51.046;3.732;2023-03-01T03:04:17;24.67;;;15.30;;
23072;SDS011;67971;51.046;3.732;2023-03-01T03:06:46;23.57;;;16.30;;
23072;SDS011;67971;51.046;3.732;2023-03-01T03:09:13;23.37;;;15.77;;
23072;SDS011;67971;51.046;3.732;2023-03-01T03:11:40;26.13;;;17.37;;
23072;SDS011;67971;51.046;3.732;2023-03-01T03:14:09;22.37;;;15.43;;
23072;SDS011;67971;51.046;3.732;2023-03-01T03:16:39;23.93;;;15.80;;
23072;SDS011;67971;51.046;3.732;2023-03-01T03:19:09;25.00;;;16.77;;
23072;SDS011;67971;51.046;3.732;2023-03-01T03:21:34;23.20;;;16.07;;
23072;SDS011;67971;51.046;3.732;2023-03-01T03:24:01;25.93;;;16.67;;
23072;SDS011;67971;51.046;3.732;2023-03-01T03:26:26;21.60;;;15.30;;
23072;SDS011;67971;51.046;3.732;2023-03-01T03:28:52;24.97;;;16.93;;
23072;SDS011;67971;51.046;3.732;2023-03-01T03:31:18;28.27;;;16.60;;
23072;SDS011;67971;51.046;3.732;2023-03-01T03:33:44;26.13;;;15.70;;
23072;SDS011;67971;51.046;3.732;2023-03-01T03:36:14;26.73;;;16.50;;
23072;SDS011;67971;51.046;3.732;2023-03-01T03:38:42;26.17;;;16.20;;
23072;SDS011;67971;51.046;3.732;2023-03-01T03:41:11;27.03;;;16.13;;
23072;SDS011;67971;51.046;3.732;2023-03-01T03:43:37;27.20;;;16.60;;
23072;SDS011;67971;51.046;3.732;2023-03-01T03:46:05;25.83;;;16.87;;
23072;SDS011;67971;51.046;3.732;2023-03-01T03:48:35;25.63;;;17.13;;
23072;SDS011;67971;51.046;3.732;2023-03-01T03:51:03;28.73;;;17.07;;
23072;SDS011;67971;51.046;3.732;2023-03-01T03:53:32;26.50;;;17.27;;
23072;SDS011;67971;51.046;3.732;2023-03-01T03:55:58;27.07;;;17.63;;
23072;SDS011;67971;51.046;3.732;2023-03-01T03:58:25;27.73;;;16.40;;
23072;SDS011;67971;51.046;3.732;2023-03-01T04:00:52;26.80;;;17.00;;
23072;SDS011;67971;51.046;3.732;2023-03-01T04:03:21;31.57;;;17.40;;
23072;SDS011;67971;51.046;3.732;2023-03-01T04:05:47;25.10;;;16.43;;
23072;SDS011;67971;51.046;3.732;2023-03-01T04:08:15;29.50;;;17.13;;
23072;SDS011;67971;51.046;3.732;2023-03-01T04:10:43;28.73;;;16.57;;
23072;SDS011;67971;51.046;3.732;2023-03-01T04:13:11;27.97;;;17.67;;
23072;SDS011;67971;51.046;3.732;2023-03-01T04:15:38;25.43;;;16.83;;
23072;SDS011;67971;51.046;3.732;2023-03-01T04:18:05;29.57;;;17.73;;
23072;SDS011;67971;51.046;3.732;2023-03-01T04:20:32;27.73;;;18.00;;
23072;SDS011;67971;51.046;3.732;2023-03-01T04:23:16;28.03;;;16.87;;
23072;SDS011;67971;51.046;3.732;2023-03-01T04:25:49;27.53;;;17.93;;
23072;SDS011;67971;51.046;3.732;2023-03-01T04:28:20;26.23;;;16.70;;
23072;SDS011;67971;51.046;3.732;2023-03-01T04:30:53;31.37;;;17.67;;
23072;SDS011;67971;51.046;3.732;2023-03-01T04:33:19;26.60;;;17.17;;
23072;SDS011;67971;51.046;3.732;2023-03-01T04:35:45;29.17;;;17.07;;
23072;SDS011;67971;51.046;3.732;2023-03-01T04:38:14;28.27;;;17.70;;
23072;SDS011;67971;51.046;3.732;2023-03-01T04:40:40;30.87;;;18.23;;
23072;SDS011;67971;51.046;3.732;2023-03-01T04:43:08;26.87;;;17.20;;
23072;SDS011;67971;51.046;3.732;2023-03-01T04:45:35;28.43;;;17.53;;
23072;SDS011;67971;51.046;3.732;2023-03-01T04:48:01;30.90;;;19.20;;
23072;SDS011;67971;51.046;3.732;2023-03-01T04:50:28;29.00;;;17.73;;
23072;SDS011;67971;51.046;3.732;2023-03-01T04:52:54;34.73;;;17.83;;
23072;SDS011;67971;51.046;3.732;2023-03-01T04:55:24;30.63;;;18.33;;
23072;SDS011;67971;51.046;3.732;2023-03-01T04:57:53;32.90;;;17.90;;
23072;SDS011;67971;51.046;3.732;2023-03-01T05:00:19;34.40;;;19.20;;
23072;SDS011;67971;51.046;3.732;2023-03-01T05:02:50;30.43;;;18.43;;
23072;SDS011;67971;51.046;3.732;2023-03-01T05:07:51;30.87;;;19.23;;
23072;SDS011;67971;51.046;3.732;2023-03-01T05:10:18;31.53;;;19.30;;
23072;SDS011;67971;51.046;3.732;2023-03-01T05:12:43;32.40;;;19.73;;
23072;SDS011;67971;51.046;3.732;2023-03-01T05:15:09;33.27;;;19.27;;
23072;SDS011;67971;51.046;3.732;2023-03-01T05:17:35;35.40;;;19.63;;
23072;SDS011;67971;51.046;3.732;2023-03-01T05:20:01;30.17;;;18.27;;
23072;SDS011;67971;51.046;3.732;2023-03-01T05:22:32;31.83;;;19.33;;
23072;SDS011;67971;51.046;3.732;2023-03-01T05:24:57;33.90;;;18.37;;
23072;SDS011;67971;51.046;3.732;2023-03-01T05:27:23;30.47;;;18.53;;
23072;SDS011;67971;51.046;3.732;2023-03-01T05:29:48;30.13;;;18.50;;
23072;SDS011;67971;51.046;3.732;2023-03-01T05:32:14;30.53;;;18.57;;
23072;SDS011;67971;51.046;3.732;2023-03-01T05:34:40;31.47;;;17.73;;
23072;SDS011;67971;51.046;3.732;2023-03-01T05:37:07;31.67;;;19.13;;
23072;SDS011;67971;51.046;3.732;2023-03-01T05:39:33;34.07;;;19.73;;
23072;SDS011;67971;51.046;3.732;2023-03-01T05:42:00;30.30;;;18.67;;
23072;SDS011;67971;51.046;3.732;2023-03-01T05:44:27;32.50;;;19.17;;
23072;SDS011;67971;51.046;3.732;2023-03-01T05:46:54;30.10;;;18.40;;
23072;SDS011;67971;51.046;3.732;2023-03-01T05:49:20;28.60;;;17.50;;
23072;SDS011;67971;51.046;3.732;2023-03-01T05:51:49;30.03;;;18.60;;
23072;SDS011;67971;51.046;3.732;2023-03-01T05:54:16;30.30;;;18.33;;
23072;SDS011;67971;51.046;3.732;2023-03-01T05:56:43;30.87;;;17.73;;
23072;SDS011;67971;51.046;3.732;2023-03-01T05:59:10;28.83;;;16.57;;
23072;SDS011;67971;51.046;3.732;2023-03-01T06:01:36;30.17;;;17.70;;
23072;SDS011;67971;51.046;3.732;2023-03-01T06:04:03;30.87;;;17.33;;
23072;SDS011;67971;51.046;3.732;2023-03-01T06:06:29;28.07;;;17.10;;
23072;SDS011;67971;51.046;3.732;2023-03-01T06:08:58;28.80;;;17.40;;
23072;SDS011;67971;51.046;3.732;2023-03-01T06:11:24;33.67;;;16.83;;
23072;SDS011;67971;51.046;3.732;2023-03-01T06:13:49;29.13;;;16.40;;
23072;SDS011;67971;51.046;3.732;2023-03-01T06:16:15;28.27;;;16.10;;
23072;SDS011;67971;51.046;3.732;2023-03-01T06:18:41;29.07;;;16.20;;
23072;SDS011;67971;51.046;3.732;2023-03-01T06:21:07;26.30;;;16.30;;
23072;SDS011;67971;51.046;3.732;2023-03-01T06:23:33;28.57;;;16.93;;
23072;SDS011;67971;51.046;3.732;2023-03-01T06:25:59;28.77;;;16.77;;
23072;SDS011;67971;51.046;3.732;2023-03-01T06:28:25;29.80;;;16.57;;
23072;SDS011;67971;51.046;3.732;2023-03-01T06:30:51;28.83;;;16.93;;
23072;SDS011;67971;51.046;3.732;2023-03-01T06:33:17;31.07;;;16.47;;
23072;SDS011;67971;51.046;3.732;2023-03-01T06:35:45;29.07;;;16.80;;
23072;SDS011;67971;51.046;3.732;2023-03-01T06:38:11;34.00;;;17.10;;
23072;SDS011;67971;51.046;3.732;2023-03-01T06:40:40;29.97;;;16.67;;
23072;SDS011;67971;51.046;3.732;2023-03-01T06:43:05;32.43;;;17.33;;
23072;SDS011;67971;51.046;3.732;2023-03-01T06:45:32;31.50;;;17.07;;
23072;SDS011;67971;51.046;3.732;2023-03-01T06:48:05;25.23;;;16.60;;
23072;SDS011;67971;51.046;3.732;2023-03-01T06:50:32;32.53;;;17.37;;
23072;SDS011;67971;51.046;3.732;2023-03-01T06:53:00;28.47;;;16.43;;
23072;SDS011;67971;51.046;3.732;2023-03-01T06:55:26;30.23;;;17.00;;
23072;SDS011;67971;51.046;3.732;2023-03-01T06:57:55;26.13;;;14.90;;
23072;SDS011;67971;51.046;3.732;2023-03-01T07:00:22;27.23;;;16.37;;
23072;SDS011;67971;51.046;3.732;2023-03-01T07:02:48;25.63;;;14.60;;
23072;SDS011;67971;51.046;3.732;2023-03-01T07:05:14;25.53;;;15.30;;
23072;SDS011;67971;51.046;3.732;2023-03-01T07:07:40;25.20;;;13.53;;
23072;SDS011;67971;51.046;3.732;2023-03-01T07:10:05;25.10;;;15.47;;
23072;SDS011;67971;51.046;3.732;2023-03-01T07:12:32;23.83;;;14.33;;
23072;SDS011;67971;51.046;3.732;2023-03-01T07:14:57;21.80;;;13.73;;
23072;SDS011;67971;51.046;3.732;2023-03-01T07:17:23;23.70;;;14.67;;
23072;SDS011;67971;51.046;3.732;2023-03-01T07:19:49;22.87;;;13.47;;
23072;SDS011;67971;51.046;3.732;2023-03-01T07:22:14;23.83;;;14.27;;
23072;SDS011;67971;51.046;3.732;2023-03-01T07:24:41;26.67;;;14.83;;
23072;SDS011;67971;51.046;3.732;2023-03-01T07:27:06;26.00;;;15.10;;
23072;SDS011;67971;51.046;3.732;2023-03-01T07:29:32;27.43;;;14.83;;
23072;SDS011;67971;51.046;3.732;2023-03-01T07:31:58;25.43;;;15.53;;
23072;SDS011;67971;51.046;3.732;2023-03-01T07:34:24;28.27;;;14.97;;
23072;SDS011;67971;51.046;3.732;2023-03-01T07:36:49;26.40;;;14.53;;
23072;SDS011;67971;51.046;3.732;2023-03-01T07:39:15;22.10;;;13.80;;
23072;SDS011;67971;51.046;3.732;2023-03-01T07:41:41;21.67;;;13.03;;
23072;SDS011;67971;51.046;3.732;2023-03-01T07:44:07;18.40;;;12.63;;
23072;SDS011;67971;51.046;3.732;2023-03-01T07:46:32;17.60;;;12.07;;
23072;SDS011;67971;51.046;3.732;2023-03-01T07:48:58;24.53;;;13.63;;
23072;SDS011;67971;51.046;3.732;2023-03-01T07:51:24;21.40;;;12.93;;
23072;SDS011;67971;51.046;3.732;2023-03-01T07:53:49;16.67;;;12.00;;
23072;SDS011;67971;51.046;3.732;2023-03-01T07:56:15;18.17;;;11.07;;
23072;SDS011;67971;51.046;3.732;2023-03-01T07:58:43;14.90;;;11.40;;
23072;SDS011;67971;51.046;3.732;2023-03-01T08:01:12;14.17;;;11.10;;
23072;SDS011;67971;51.046;3.732;2023-03-01T08:03:39;19.77;;;10.87;;
23072;SDS011;67971;51.046;3.732;2023-03-01T08:06:06;23.10;;;10.10;;
23072;SDS011;67971;51.046;3.732;2023-03-01T08:08:34;15.17;;;9.80;;
23072;SDS011;67971;51.046;3.732;2023-03-01T08:11:01;14.07;;;9.87;;
23072;SDS011;67971;51.046;3.732;2023-03-01T08:13:28;14.97;;;10.00;;
23072;SDS011;67971;51.046;3.732;2023-03-01T08:15:54;12.60;;;9.60;;
23072;SDS011;67971;51.046;3.732;2023-03-01T08:18:25;14.50;;;9.87;;
23072;SDS011;67971;51.046;3.732;2023-03-01T08:20:51;12.82;;;9.57;;
23072;SDS011;67971;51.046;3.732;2023-03-01T08:23:16;12.60;;;10.00;;
23072;SDS011;67971;51.046;3.732;2023-03-01T08:25:42;13.60;;;10.52;;
23072;SDS011;67971;51.046;3.732;2023-03-01T08:28:07;12.13;;;9.60;;
23072;SDS011;67971;51.046;3.732;2023-03-01T08:30:33;12.63;;;9.93;;
23072;SDS011;67971;51.046;3.732;2023-03-01T08:32:59;11.38;;;9.02;;
23072;SDS011;67971;51.046;3.732;2023-03-01T08:35:25;12.63;;;9.10;;
23072;SDS011;67971;51.046;3.732;2023-03-01T08:37:50;14.57;;;9.15;;
23072;SDS011;67971;51.046;3.732;2023-03-01T08:40:16;12.48;;;8.93;;
23072;SDS011;67971;51.046;3.732;2023-03-01T08:42:42;11.82;;;8.82;;
23072;SDS011;67971;51.046;3.732;2023-03-01T08:45:09;10.85;;;9.13;;
23072;SDS011;67971;51.046;3.732;2023-03-01T08:47:35;12.23;;;8.43;;
23072;SDS011;67971;51.046;3.732;2023-03-01T08:50:02;12.60;;;8.70;;
23072;SDS011;67971;51.046;3.732;2023-03-01T08:52:28;13.35;;;8.05;;
23072;SDS011;67971;51.046;3.732;2023-03-01T08:54:55;9.30;;;8.40;;
23072;SDS011;67971;51.046;3.732;2023-03-01T08:57:21;17.08;;;8.63;;
23072;SDS011;67971;51.046;3.732;2023-03-01T08:59:46;15.43;;;9.82;;
23072;SDS011;67971;51.046;3.732;2023-03-01T09:02:13;40.63;;;11.93;;
23072;SDS011;67971;51.046;3.732;2023-03-01T09:04:41;22.23;;;10.13;;
23072;SDS011;67971;51.046;3.732;2023-03-01T09:07:07;9.90;;;8.57;;
23072;SDS011;67971;51.046;3.732;2023-03-01T09:09:33;44.55;;;10.43;;
23072;SDS011;67971;51.046;3.732;2023-03-01T09:11:59;14.50;;;8.63;;
23072;SDS011;67971;51.046;3.732;2023-03-01T09:14:25;17.77;;;8.63;;
23072;SDS011;67971;51.046;3.732;2023-03-01T09:16:51;16.48;;;8.65;;
23072;SDS011;67971;51.046;3.732;2023-03-01T09:19:17;11.80;;;8.75;;
23072;SDS011;67971;51.046;3.732;2023-03-01T09:21:43;12.23;;;8.10;;
23072;SDS011;67971;51.046;3.732;2023-03-01T09:24:17;13.90;;;9.10;;
23072;SDS011;67971;51.046;3.732;2023-03-01T09:26:48;14.95;;;9.75;;
23072;SDS011;67971;51.046;3.732;2023-03-01T09:29:14;20.88;;;9.40;;
23072;SDS011;67971;51.046;3.732;2023-03-01T09:31:41;15.73;;;8.63;;
23072;SDS011;67971;51.046;3.732;2023-03-01T09:34:07;10.35;;;8.30;;
23072;SDS011;67971;51.046;3.732;2023-03-01T09:36:33;12.45;;;8.38;;
23072;SDS011;67971;51.046;3.732;2023-03-01T09:38:59;14.15;;;8.13;;
23072;SDS011;67971;51.046;3.732;2023-03-01T09:46:41;16.13;;;8.50;;
23072;SDS011;67971;51.046;3.732;2023-03-01T09:49:21;12.85;;;8.80;;
23072;SDS011;67971;51.046;3.732;2023-03-01T09:52:33;19.17;;;9.05;;
23072;SDS011;67971;51.046;3.732;2023-03-01T09:54:52;13.32;;;8.70;;
23072;SDS011;67971;51.046;3.732;2023-03-01T09:57:23;26.00;;;10.25;;
23072;SDS011;67971;51.046;3.732;2023-03-01T10:06:11;9.95;;;8.75;;
23072;SDS011;67971;51.046;3.732;2023-03-01T10:13:59;11.48;;;8.00;;
23072;SDS011;67971;51.046;3.732;2023-03-01T10:19:17;16.33;;;8.38;;
23072;SDS011;67971;51.046;3.732;2023-03-01T10:21:57;9.68;;;7.68;;
23072;SDS011;67971;51.046;3.732;2023-03-01T10:24:28;11.80;;;8.32;;
23072;SDS011;67971;51.046;3.732;2023-03-01T10:27:01;9.00;;;7.25;;
23072;SDS011;67971;51.046;3.732;2023-03-01T10:32:52;12.20;;;7.00;;
23072;SDS011;67971;51.046;3.732;2023-03-01T10:35:20;15.02;;;7.40;;
23072;SDS011;67971;51.046;3.732;2023-03-01T10:37:57;10.13;;;7.03;;
23072;SDS011;67971;51.046;3.732;2023-03-01T10:40:29;16.20;;;8.65;;
23072;SDS011;67971;51.046;3.732;2023-03-01T10:42:57;11.55;;;7.82;;
23072;SDS011;67971;51.046;3.732;2023-03-01T10:48:04;8.18;;;6.88;;
23072;SDS011;67971;51.046;3.732;2023-03-01T10:50:33;11.63;;;7.97;;
23072;SDS011;67971;51.046;3.732;2023-03-01T10:53:03;10.93;;;7.32;;
23072;SDS011;67971;51.046;3.732;2023-03-01T10:55:36;13.43;;;7.68;;
23072;SDS011;67971;51.046;3.732;2023-03-01T10:58:08;9.00;;;7.35;;
23072;SDS011;67971;51.046;3.732;2023-03-01T11:01:05;8.95;;;6.57;;
23072;SDS011;67971;51.046;3.732;2023-03-01T11:06:32;14.45;;;7.47;;
23072;SDS011;67971;51.046;3.732;2023-03-01T11:11:43;9.93;;;6.15;;
23072;SDS011;67971;51.046;3.732;2023-03-01T11:14:16;13.45;;;7.43;;
23072;SDS011;67971;51.046;3.732;2023-03-01T11:16:47;16.55;;;7.38;;
23072;SDS011;67971;51.046;3.732;2023-03-01T11:19:23;9.15;;;6.97;;
23072;SDS011;67971;51.046;3.732;2023-03-01T11:21:56;11.40;;;7.25;;
23072;SDS011;67971;51.046;3.732;2023-03-01T11:24:45;8.02;;;6.35;;
23072;SDS011;67971;51.046;3.732;2023-03-01T11:27:17;6.82;;;6.13;;
23072;SDS011;67971;51.046;3.732;2023-03-01T11:29:56;11.75;;;5.90;;
23072;SDS011;67971;51.046;3.732;2023-03-01T11:35:34;9.68;;;6.15;;
23072;SDS011;67971;51.046;3.732;2023-03-01T11:38:22;9.10;;;6.30;;
23072;SDS011;67971;51.046;3.732;2023-03-01T11:40:52;10.85;;;6.63;;
23072;SDS011;67971;51.046;3.732;2023-03-01T11:43:51;9.00;;;6.80;;
23072;SDS011;67971;51.046;3.732;2023-03-01T12:25:18;7.85;;;5.63;;
23072;SDS011;67971;51.046;3.732;2023-03-01T12:38:48;8.40;;;6.03;;
23072;SDS011;67971;51.046;3.732;2023-03-01T12:47:07;6.93;;;5.63;;
23072;SDS011;67971;51.046;3.732;2023-03-01T12:49:45;8.35;;;5.57;;
23072;SDS011;67971;51.046;3.732;2023-03-01T12:55:45;8.30;;;6.25;;
23072;SDS011;67971;51.046;3.732;2023-03-01T13:15:29;9.70;;;5.97;;
23072;SDS011;67971;51.046;3.732;2023-03-01T13:18:04;7.97;;;5.72;;
23072;SDS011;67971;51.046;3.732;2023-03-01T13:20:59;6.65;;;5.97;;
23072;SDS011;67971;51.046;3.732;2023-03-01T13:23:28;9.07;;;6.32;;
23072;SDS011;67971;51.046;3.732;2023-03-01T13:36:45;7.93;;;6.20;;
23072;SDS011;67971;51.046;3.732;2023-03-01T13:39:02;9.57;;;6.00;;
23072;SDS011;67971;51.046;3.732;2023-03-01T13:54:47;8.30;;;6.53;;
23072;SDS011;67971;51.046;3.732;2023-03-01T13:57:16;9.90;;;6.53;;
23072;SDS011;67971;51.046;3.732;2023-03-01T13:59:47;9.32;;;6.60;;
23072;SDS011;67971;51.046;3.732;2023-03-01T14:02:13;8.75;;;6.68;;
23072;SDS011;67971;51.046;3.732;2023-03-01T14:04:40;11.35;;;6.82;;
23072;SDS011;67971;51.046;3.732;2023-03-01T14:07:09;10.05;;;6.30;;
23072;SDS011;67971;51.046;3.732;2023-03-01T14:09:50;11.98;;;7.93;;
23072;SDS011;67971;51.046;3.732;2023-03-01T14:12:24;9.63;;;6.28;;
23072;SDS011;67971;51.046;3.732;2023-03-01T14:15:06;11.75;;;7.47;;
23072;SDS011;67971;51.046;3.732;2023-03-01T14:17:49;12.98;;;7.60;;
23072;SDS011;67971;51.046;3.732;2023-03-01T14:20:38;8.48;;;6.93;;
23072;SDS011;67971;51.046;3.732;2023-03-01T14:23:28;13.98;;;7.03;;
23072;SDS011;67971;51.046;3.732;2023-03-01T14:25:55;7.43;;;6.22;;
23072;SDS011;67971;51.046;3.732;2023-03-01T14:28:31;8.60;;;6.57;;
23072;SDS011;67971;51.046;3.732;2023-03-01T14:31:02;8.13;;;6.65;;
23072;SDS011;67971;51.046;3.732;2023-03-01T14:33:29;10.10;;;6.85;;
23072;SDS011;67971;51.046;3.732;2023-03-01T14:36:00;9.65;;;6.78;;
23072;SDS011;67971;51.046;3.732;2023-03-01T14:41:10;8.55;;;6.32;;
23072;SDS011;67971;51.046;3.732;2023-03-01T14:43:47;11.30;;;7.00;;
23072;SDS011;67971;51.046;3.732;2023-03-01T14:46:39;9.18;;;6.75;;
23072;SDS011;67971;51.046;3.732;2023-03-01T14:49:13;8.75;;;6.03;;
23072;SDS011;67971;51.046;3.732;2023-03-01T14:51:42;8.45;;;6.68;;
23072;SDS011;67971;51.046;3.732;2023-03-01T14:54:24;8.13;;;6.97;;
23072;SDS011;67971;51.046;3.732;2023-03-01T14:57:00;8.02;;;6.72;;
23072;SDS011;67971;51.046;3.732;2023-03-01T14:59:26;11.18;;;6.75;;
23072;SDS011;67971;51.046;3.732;2023-03-01T15:01:53;9.77;;;6.97;;
23072;SDS011;67971;51.046;3.732;2023-03-01T15:04:21;6.93;;;5.97;;
23072;SDS011;67971;51.046;3.732;2023-03-01T15:06:52;11.80;;;7.05;;
23072;SDS011;67971;51.046;3.732;2023-03-01T15:09:19;9.82;;;6.72;;
23072;SDS011;67971;51.046;3.732;2023-03-01T15:11:46;9.48;;;7.15;;
23072;SDS011;67971;51.046;3.732;2023-03-01T15:14:58;11.85;;;6.50;;
23072;SDS011;67971;51.046;3.732;2023-03-01T15:17:15;11.32;;;6.72;;
23072;SDS011;67971;51.046;3.732;2023-03-01T15:20:03;8.82;;;6.47;;
23072;SDS011;67971;51.046;3.732;2023-03-01T15:22:31;9.73;;;7.38;;
23072;SDS011;67971;51.046;3.732;2023-03-01T15:24:57;8.50;;;6.75;;
23072;SDS011;67971;51.046;3.732;2023-03-01T15:27:24;10.38;;;7.03;;
23072;SDS011;67971;51.046;3.732;2023-03-01T15:29:55;9.20;;;6.28;;
23072;SDS011;67971;51.046;3.732;2023-03-01T15:32:27;13.50;;;6.70;;
23072;SDS011;67971;51.046;3.732;2023-03-01T15:38:04;9.48;;;6.47;;
23072;SDS011;67971;51.046;3.732;2023-03-01T15:40:49;14.43;;;7.55;;
23072;SDS011;67971;51.046;3.732;2023-03-01T15:43:37;11.52;;;7.22;;
23072;SDS011;67971;51.046;3.732;2023-03-01T15:46:03;15.02;;;8.68;;
23072;SDS011;67971;51.046;3.732;2023-03-01T15:48:29;9.10;;;7.13;;
23072;SDS011;67971;51.046;3.732;2023-03-01T15:50:56;24.20;;;8.02;;
23072;SDS011;67971;51.046;3.732;2023-03-01T15:53:23;11.35;;;7.15;;
23072;SDS011;67971;51.046;3.732;2023-03-01T15:55:49;11.38;;;7.25;;
23072;SDS011;67971;51.046;3.732;2023-03-01T15:58:19;9.63;;;7.80;;
23072;SDS011;67971;51.046;3.732;2023-03-01T16:00:47;11.20;;;7.68;;
23072;SDS011;67971;51.046;3.732;2023-03-01T16:03:16;9.38;;;7.22;;
23072;SDS011;67971;51.046;3.732;2023-03-01T16:05:46;9.95;;;7.90;;
23072;SDS011;67971;51.046;3.732;2023-03-01T16:08:13;11.75;;;8.13;;
23072;SDS011;67971;51.046;3.732;2023-03-01T16:10:39;11.18;;;7.88;;
23072;SDS011;67971;51.046;3.732;2023-03-01T16:13:06;14.50;;;7.38;;
23072;SDS011;67971;51.046;3.732;2023-03-01T16:15:33;11.45;;;7.97;;
23072;SDS011;67971;51.046;3.732;2023-03-01T16:18:00;12.47;;;8.90;;
23072;SDS011;67971;51.046;3.732;2023-03-01T16:20:26;12.90;;;7.53;;
23072;SDS011;67971;51.046;3.732;2023-03-01T16:22:53;13.73;;;8.30;;
23072;SDS011;67971;51.046;3.732;2023-03-01T16:25:20;11.63;;;8.33;;
23072;SDS011;67971;51.046;3.732;2023-03-01T16:27:47;14.93;;;9.30;;
23072;SDS011;67971;51.046;3.732;2023-03-01T16:30:15;11.57;;;8.17;;
23072;SDS011;67971;51.046;3.732;2023-03-01T16:32:43;12.20;;;8.20;;
23072;SDS011;67971;51.046;3.732;2023-03-01T16:35:10;11.00;;;8.20;;
23072;SDS011;67971;51.046;3.732;2023-03-01T16:37:37;12.00;;;8.30;;
23072;SDS011;67971;51.046;3.732;2023-03-01T16:40:05;14.83;;;8.60;;
23072;SDS011;67971;51.046;3.732;2023-03-01T16:42:40;12.80;;;7.87;;
23072;SDS011;67971;51.046;3.732;2023-03-01T16:45:07;9.40;;;7.63;;
23072;SDS011;67971;51.046;3.732;2023-03-01T16:47:33;16.03;;;8.60;;
23072;SDS011;67971;51.046;3.732;2023-03-01T16:49:59;16.37;;;8.13;;
23072;SDS011;67971;51.046;3.732;2023-03-01T16:52:25;13.00;;;8.67;;
23072;SDS011;67971;51.046;3.732;2023-03-01T16:54:51;11.17;;;8.40;;
23072;SDS011;67971;51.046;3.732;2023-03-01T16:57:17;15.63;;;9.07;;
23072;SDS011;67971;51.046;3.732;2023-03-01T16:59:44;11.77;;;8.53;;
23072;SDS011;67971;51.046;3.732;2023-03-01T17:02:10;17.07;;;9.27;;
23072;SDS011;67971;51.046;3.732;2023-03-01T17:04:38;12.13;;;8.83;;
23072;SDS011;67971;51.046;3.732;2023-03-01T17:07:04;19.90;;;9.53;;
23072;SDS011;67971;51.046;3.732;2023-03-01T17:09:29;11.97;;;8.73;;
23072;SDS011;67971;51.046;3.732;2023-03-01T17:11:58;14.90;;;8.23;;
23072;SDS011;67971;51.046;3.732;2023-03-01T17:14:24;12.03;;;8.83;;
23072;SDS011;67971;51.046;3.732;2023-03-01T17:16:50;14.07;;;8.93;;
23072;SDS011;67971;51.046;3.732;2023-03-01T17:19:17;16.47;;;9.00;;
23072;SDS011;67971;51.046;3.732;2023-03-01T17:21:44;12.57;;;8.50;;